sensor_id;sensor_type;location;lat;lon;timestamp;noise_LAeq;noise_LA_min;noise_LA_max;noise_LA01;noise_LA95
72160;Laerm;60045;51.792;10.938;2022-07-23T00:00:42;49.96;26.70;69.26;;
72160;Laerm;60045;51.792;10.938;2022-07-23T00:03:09;27.84;26.38;42.00;;
72160;Laerm;60045;51.792;10.938;2022-07-23T00:05:35;35.14;26.78;45.90;;
72160;Laerm;60045;51.792;10.938;2022-07-23T00:08:03;29.80;26.95;42.99;;
72160;Laerm;60045;51.792;10.938;2022-07-23T00:10:29;50.30;26.44;68.72;;
72160;Laerm;60045;51.792;10.938;2022-07-23T00:12:55;49.57;26.50;66.78;;
72160;Laerm;60045;51.792;10.938;2022-07-23T00:15:21;27.83;26.53;36.16;;
72160;Laerm;60045;51.792;10.938;2022-07-23T00:17:48;27.87;26.45;45.56;;
72160;Laerm;60045;51.792;10.938;2022-07-23T00:20:14;28.02;26.67;32.66;;
72160;Laerm;60045;51.792;10.938;2022-07-23T00:22:45;28.09;26.61;36.78;;
72160;Laerm;60045;51.792;10.938;2022-07-23T00:25:12;31.12;26.72;46.80;;
72160;Laerm;60045;51.792;10.938;2022-07-23T00:27:39;33.02;30.13;44.76;;
72160;Laerm;60045;51.792;10.938;2022-07-23T00:30:05;58.07;28.03;78.58;;
72160;Laerm;60045;51.792;10.938;2022-07-23T00:32:32;29.49;27.45;44.50;;
72160;Laerm;60045;51.792;10.938;2022-07-23T00:34:58;37.05;27.88;61.18;;
72160;Laerm;60045;51.792;10.938;2022-07-23T00:37:24;52.71;28.22;70.01;;
72160;Laerm;60045;51.792;10.938;2022-07-23T00:39:50;38.91;33.48;48.38;;
72160;Laerm;60045;51.792;10.938;2022-07-23T00:42:18;37.67;33.50;47.19;;
72160;Laerm;60045;51.792;10.938;2022-07-23T00:44:44;35.02;29.58;45.81;;
72160;Laerm;60045;51.792;10.938;2022-07-23T00:47:12;45.75;29.43;55.53;;
72160;Laerm;60045;51.792;10.938;2022-07-23T00:49:38;46.43;42.99;55.60;;
72160;Laerm;60045;51.792;10.938;2022-07-23T00:52:04;48.83;44.93;63.85;;
72160;Laerm;60045;51.792;10.938;2022-07-23T00:54:31;53.15;43.07;69.67;;
72160;Laerm;60045;51.792;10.938;2022-07-23T00:56:57;48.09;42.54;66.90;;
72160;Laerm;60045;51.792;10.938;2022-07-23T00:59:25;50.89;46.24;59.53;;
72160;Laerm;60045;51.792;10.938;2022-07-23T01:01:51;53.21;49.95;61.43;;
72160;Laerm;60045;51.792;10.938;2022-07-23T01:04:17;51.45;48.95;57.78;;
72160;Laerm;60045;51.792;10.938;2022-07-23T01:06:43;54.67;49.15;69.37;;
72160;Laerm;60045;51.792;10.938;2022-07-23T01:09:10;50.74;47.38;60.55;;
72160;Laerm;60045;51.792;10.938;2022-07-23T01:11:37;57.66;50.88;72.46;;
72160;Laerm;60045;51.792;10.938;2022-07-23T01:14:14;54.72;50.77;65.35;;
72160;Laerm;60045;51.792;10.938;2022-07-23T01:16:43;52.67;48.81;60.98;;
72160;Laerm;60045;51.792;10.938;2022-07-23T01:19:09;51.90;48.12;62.23;;
72160;Laerm;60045;51.792;10.938;2022-07-23T01:21:37;53.35;50.59;61.66;;
72160;Laerm;60045;51.792;10.938;2022-07-23T01:24:05;54.27;50.12;63.12;;
72160;Laerm;60045;51.792;10.938;2022-07-23T01:26:31;56.54;50.83;69.14;;
72160;Laerm;60045;51.792;10.938;2022-07-23T01:28:58;53.63;49.51;68.02;;
72160;Laerm;60045;51.792;10.938;2022-07-23T01:31:24;54.50;49.70;71.77;;
72160;Laerm;60045;51.792;10.938;2022-07-23T01:33:50;57.73;48.95;73.15;;
72160;Laerm;60045;51.792;10.938;2022-07-23T01:36:16;51.47;48.09;60.90;;
72160;Laerm;60045;51.792;10.938;2022-07-23T01:38:42;56.49;45.55;73.09;;
72160;Laerm;60045;51.792;10.938;2022-07-23T01:41:10;45.77;41.83;55.64;;
72160;Laerm;60045;51.792;10.938;2022-07-23T01:43:36;43.73;39.28;55.82;;
72160;Laerm;60045;51.792;10.938;2022-07-23T01:46:02;40.63;37.77;57.78;;
72160;Laerm;60045;51.792;10.938;2022-07-23T01:48:29;47.97;40.46;59.03;;
72160;Laerm;60045;51.792;10.938;2022-07-23T01:50:55;47.72;44.29;57.58;;
72160;Laerm;60045;51.792;10.938;2022-07-23T01:53:21;48.53;45.35;63.37;;
72160;Laerm;60045;51.792;10.938;2022-07-23T01:55:47;47.17;44.87;55.08;;
72160;Laerm;60045;51.792;10.938;2022-07-23T01:58:15;50.32;45.74;58.40;;
72160;Laerm;60045;51.792;10.938;2022-07-23T02:00:41;48.97;45.61;56.78;;
72160;Laerm;60045;51.792;10.938;2022-07-23T02:03:07;45.91;40.83;58.53;;
72160;Laerm;60045;51.792;10.938;2022-07-23T02:05:34;41.61;38.48;55.62;;
72160;Laerm;60045;51.792;10.938;2022-07-23T02:08:00;39.27;36.66;58.78;;
72160;Laerm;60045;51.792;10.938;2022-07-23T02:10:27;38.01;35.83;53.34;;
72160;Laerm;60045;51.792;10.938;2022-07-23T02:12:53;55.31;35.06;72.85;;
72160;Laerm;60045;51.792;10.938;2022-07-23T02:15:21;36.90;34.28;50.33;;
72160;Laerm;60045;51.792;10.938;2022-07-23T02:17:47;36.23;33.86;55.48;;
72160;Laerm;60045;51.792;10.938;2022-07-23T02:20:13;35.61;33.44;45.49;;
72160;Laerm;60045;51.792;10.938;2022-07-23T02:22:39;35.10;32.55;57.11;;
72160;Laerm;60045;51.792;10.938;2022-07-23T02:25:06;55.14;32.02;72.87;;
72160;Laerm;60045;51.792;10.938;2022-07-23T02:27:33;34.51;31.95;53.78;;
72160;Laerm;60045;51.792;10.938;2022-07-23T02:29:59;33.93;31.52;52.83;;
72160;Laerm;60045;51.792;10.938;2022-07-23T02:32:26;33.75;31.62;49.28;;
72160;Laerm;60045;51.792;10.938;2022-07-23T02:34:52;34.15;31.12;51.97;;
72160;Laerm;60045;51.792;10.938;2022-07-23T02:37:19;33.63;31.35;49.34;;
72160;Laerm;60045;51.792;10.938;2022-07-23T02:39:45;36.60;31.74;61.92;;
72160;Laerm;60045;51.792;10.938;2022-07-23T02:42:13;44.82;33.47;56.05;;
72160;Laerm;60045;51.792;10.938;2022-07-23T02:44:39;47.01;42.90;55.54;;
72160;Laerm;60045;51.792;10.938;2022-07-23T02:47:05;41.73;38.10;52.04;;
72160;Laerm;60045;51.792;10.938;2022-07-23T02:49:33;54.75;39.95;66.39;;
72160;Laerm;60045;51.792;10.938;2022-07-23T02:51:59;55.06;51.79;62.28;;
72160;Laerm;60045;51.792;10.938;2022-07-23T02:54:25;54.45;51.79;64.93;;
72160;Laerm;60045;51.792;10.938;2022-07-23T02:56:52;55.63;52.36;65.77;;
72160;Laerm;60045;51.792;10.938;2022-07-23T02:59:18;56.03;50.32;69.51;;
72160;Laerm;60045;51.792;10.938;2022-07-23T03:01:45;56.30;49.32;70.42;;
72160;Laerm;60045;51.792;10.938;2022-07-23T03:04:11;58.25;49.82;74.76;;
72160;Laerm;60045;51.792;10.938;2022-07-23T03:06:38;55.11;49.30;69.35;;
72160;Laerm;60045;51.792;10.938;2022-07-23T03:09:05;55.49;47.42;71.33;;
72160;Laerm;60045;51.792;10.938;2022-07-23T03:11:32;54.53;48.30;68.30;;
72160;Laerm;60045;51.792;10.938;2022-07-23T03:13:58;59.64;51.43;72.06;;
72160;Laerm;60045;51.792;10.938;2022-07-23T03:16:24;53.93;51.25;63.31;;
72160;Laerm;60045;51.792;10.938;2022-07-23T03:18:50;54.44;50.92;61.68;;
72160;Laerm;60045;51.792;10.938;2022-07-23T03:21:17;54.99;52.22;63.33;;
72160;Laerm;60045;51.792;10.938;2022-07-23T03:23:44;60.78;52.44;74.98;;
72160;Laerm;60045;51.792;10.938;2022-07-23T03:26:10;60.43;49.02;75.17;;
72160;Laerm;60045;51.792;10.938;2022-07-23T03:28:36;56.03;46.19;71.56;;
72160;Laerm;60045;51.792;10.938;2022-07-23T03:31:03;56.89;43.93;75.41;;
72160;Laerm;60045;51.792;10.938;2022-07-23T03:33:29;54.24;43.47;71.32;;
72160;Laerm;60045;51.792;10.938;2022-07-23T03:35:55;55.74;44.88;73.14;;
72160;Laerm;60045;51.792;10.938;2022-07-23T03:38:21;57.08;48.16;74.66;;
72160;Laerm;60045;51.792;10.938;2022-07-23T03:40:49;58.22;48.93;74.39;;
72160;Laerm;60045;51.792;10.938;2022-07-23T03:43:15;49.49;45.76;59.62;;
72160;Laerm;60045;51.792;10.938;2022-07-23T03:45:41;56.86;47.64;72.59;;
72160;Laerm;60045;51.792;10.938;2022-07-23T03:48:08;50.39;47.04;59.59;;
72160;Laerm;60045;51.792;10.938;2022-07-23T03:50:34;58.53;49.20;72.38;;
72160;Laerm;60045;51.792;10.938;2022-07-23T03:53:02;57.63;48.75;74.80;;
72160;Laerm;60045;51.792;10.938;2022-07-23T03:55:28;60.07;48.86;75.90;;
72160;Laerm;60045;51.792;10.938;2022-07-23T03:57:56;53.81;50.28;67.04;;
72160;Laerm;60045;51.792;10.938;2022-07-23T04:00:22;54.97;51.84;64.38;;
72160;Laerm;60045;51.792;10.938;2022-07-23T04:02:48;55.47;51.75;63.61;;
72160;Laerm;60045;51.792;10.938;2022-07-23T04:05:14;58.67;53.69;75.35;;
72160;Laerm;60045;51.792;10.938;2022-07-23T04:07:40;59.52;54.00;77.59;;
72160;Laerm;60045;51.792;10.938;2022-07-23T04:10:07;55.98;52.62;66.71;;
72160;Laerm;60045;51.792;10.938;2022-07-23T04:12:33;54.00;51.07;62.97;;
72160;Laerm;60045;51.792;10.938;2022-07-23T04:15:02;59.67;47.32;74.77;;
72160;Laerm;60045;51.792;10.938;2022-07-23T04:17:28;49.08;46.03;59.20;;
72160;Laerm;60045;51.792;10.938;2022-07-23T04:19:54;47.47;42.69;57.54;;
72160;Laerm;60045;51.792;10.938;2022-07-23T04:22:20;57.11;39.67;71.78;;
72160;Laerm;60045;51.792;10.938;2022-07-23T04:24:47;41.19;38.16;48.98;;
72160;Laerm;60045;51.792;10.938;2022-07-23T04:27:14;40.86;37.70;53.13;;
72160;Laerm;60045;51.792;10.938;2022-07-23T04:29:40;63.11;35.95;80.34;;
72160;Laerm;60045;51.792;10.938;2022-07-23T04:32:08;54.70;36.27;73.24;;
72160;Laerm;60045;51.792;10.938;2022-07-23T04:34:34;56.68;35.81;72.06;;
72160;Laerm;60045;51.792;10.938;2022-07-23T04:37:00;49.73;35.27;67.21;;
72160;Laerm;60045;51.792;10.938;2022-07-23T04:39:26;57.61;33.92;74.77;;
72160;Laerm;60045;51.792;10.938;2022-07-23T04:41:52;57.53;34.18;74.25;;
72160;Laerm;60045;51.792;10.938;2022-07-23T04:44:19;45.83;33.08;68.91;;
72160;Laerm;60045;51.792;10.938;2022-07-23T04:46:45;36.80;33.19;48.86;;
72160;Laerm;60045;51.792;10.938;2022-07-23T04:49:12;64.57;32.49;81.62;;
72160;Laerm;60045;51.792;10.938;2022-07-23T04:51:38;58.35;33.25;73.37;;
72160;Laerm;60045;51.792;10.938;2022-07-23T04:54:05;39.93;32.30;56.67;;
72160;Laerm;60045;51.792;10.938;2022-07-23T04:56:31;39.11;32.05;59.31;;
72160;Laerm;60045;51.792;10.938;2022-07-23T04:58:57;38.99;31.87;56.40;;
72160;Laerm;60045;51.792;10.938;2022-07-23T05:01:23;56.77;31.52;76.07;;
72160;Laerm;60045;51.792;10.938;2022-07-23T05:03:49;54.97;31.94;72.47;;
72160;Laerm;60045;51.792;10.938;2022-07-23T05:06:17;36.85;30.82;50.55;;
72160;Laerm;60045;51.792;10.938;2022-07-23T05:08:43;37.89;30.82;52.50;;
72160;Laerm;60045;51.792;10.938;2022-07-23T05:11:09;56.31;32.57;70.87;;
72160;Laerm;60045;51.792;10.938;2022-07-23T05:13:35;57.44;31.46;74.86;;
72160;Laerm;60045;51.792;10.938;2022-07-23T05:16:02;60.43;32.46;77.93;;
72160;Laerm;60045;51.792;10.938;2022-07-23T05:18:28;56.93;30.46;72.72;;
72160;Laerm;60045;51.792;10.938;2022-07-23T05:20:54;56.13;29.89;74.88;;
72160;Laerm;60045;51.792;10.938;2022-07-23T05:23:22;37.44;30.26;49.46;;
72160;Laerm;60045;51.792;10.938;2022-07-23T05:25:48;33.85;29.57;47.16;;
72160;Laerm;60045;51.792;10.938;2022-07-23T05:28:14;37.25;29.44;62.04;;
72160;Laerm;60045;51.792;10.938;2022-07-23T05:30:41;37.12;30.39;55.76;;
72160;Laerm;60045;51.792;10.938;2022-07-23T05:33:07;57.69;29.51;72.64;;
72160;Laerm;60045;51.792;10.938;2022-07-23T05:35:33;54.43;30.50;71.02;;
72160;Laerm;60045;51.792;10.938;2022-07-23T05:37:59;33.80;29.57;46.87;;
72160;Laerm;60045;51.792;10.938;2022-07-23T05:40:27;54.87;29.74;71.28;;
72160;Laerm;60045;51.792;10.938;2022-07-23T05:42:54;61.11;31.19;77.34;;
72160;Laerm;60045;51.792;10.938;2022-07-23T05:45:20;57.69;37.40;73.92;;
72160;Laerm;60045;51.792;10.938;2022-07-23T05:47:47;55.97;38.49;71.27;;
72160;Laerm;60045;51.792;10.938;2022-07-23T05:50:13;63.17;34.44;79.42;;
72160;Laerm;60045;51.792;10.938;2022-07-23T05:52:40;53.15;32.02;70.74;;
72160;Laerm;60045;51.792;10.938;2022-07-23T05:55:07;53.58;31.48;69.25;;
72160;Laerm;60045;51.792;10.938;2022-07-23T05:57:35;41.35;30.89;63.20;;
72160;Laerm;60045;51.792;10.938;2022-07-23T06:00:02;53.85;29.95;72.30;;
72160;Laerm;60045;51.792;10.938;2022-07-23T06:02:28;59.03;30.92;72.95;;
72160;Laerm;60045;51.792;10.938;2022-07-23T06:04:55;56.59;30.86;73.31;;
72160;Laerm;60045;51.792;10.938;2022-07-23T06:07:21;51.25;29.39;69.03;;
72160;Laerm;60045;51.792;10.938;2022-07-23T06:09:47;39.70;31.54;54.09;;
72160;Laerm;60045;51.792;10.938;2022-07-23T06:12:14;37.25;30.48;55.53;;
72160;Laerm;60045;51.792;10.938;2022-07-23T06:14:41;39.15;30.44;54.04;;
72160;Laerm;60045;51.792;10.938;2022-07-23T06:17:08;48.69;30.48;65.50;;
72160;Laerm;60045;51.792;10.938;2022-07-23T06:19:34;65.23;34.88;80.14;;
72160;Laerm;60045;51.792;10.938;2022-07-23T06:22:01;56.37;32.64;69.84;;
72160;Laerm;60045;51.792;10.938;2022-07-23T06:24:27;64.81;32.87;79.44;;
72160;Laerm;60045;51.792;10.938;2022-07-23T06:26:53;35.96;29.26;59.54;;
72160;Laerm;60045;51.792;10.938;2022-07-23T06:29:19;56.32;30.35;73.44;;
72160;Laerm;60045;51.792;10.938;2022-07-23T06:31:47;58.76;32.35;74.20;;
72160;Laerm;60045;51.792;10.938;2022-07-23T06:34:13;54.84;29.70;70.58;;
72160;Laerm;60045;51.792;10.938;2022-07-23T06:36:39;59.68;31.11;76.23;;
72160;Laerm;60045;51.792;10.938;2022-07-23T06:39:05;55.75;34.04;70.60;;
72160;Laerm;60045;51.792;10.938;2022-07-23T06:41:32;58.54;31.87;74.73;;
72160;Laerm;60045;51.792;10.938;2022-07-23T06:43:58;57.64;30.19;73.65;;
72160;Laerm;60045;51.792;10.938;2022-07-23T06:46:24;63.31;30.48;81.00;;
72160;Laerm;60045;51.792;10.938;2022-07-23T06:48:52;54.43;30.46;70.07;;
72160;Laerm;60045;51.792;10.938;2022-07-23T06:51:18;54.04;31.30;69.46;;
72160;Laerm;60045;51.792;10.938;2022-07-23T06:53:44;56.65;30.58;73.69;;
72160;Laerm;60045;51.792;10.938;2022-07-23T06:56:10;56.91;33.43;73.29;;
72160;Laerm;60045;51.792;10.938;2022-07-23T06:58:37;55.10;30.45;71.29;;
72160;Laerm;60045;51.792;10.938;2022-07-23T07:01:03;33.71;28.57;47.51;;
72160;Laerm;60045;51.792;10.938;2022-07-23T07:03:29;59.21;30.53;75.19;;
72160;Laerm;60045;51.792;10.938;2022-07-23T07:05:57;59.44;30.86;74.32;;
72160;Laerm;60045;51.792;10.938;2022-07-23T07:08:23;52.67;27.76;68.99;;
72160;Laerm;60045;51.792;10.938;2022-07-23T07:10:49;52.11;28.26;69.64;;
72160;Laerm;60045;51.792;10.938;2022-07-23T07:13:15;59.40;31.87;72.70;;
72160;Laerm;60045;51.792;10.938;2022-07-23T07:15:42;59.41;36.09;70.92;;
72160;Laerm;60045;51.792;10.938;2022-07-23T07:18:08;39.35;28.87;59.80;;
72160;Laerm;60045;51.792;10.938;2022-07-23T07:20:34;59.95;33.45;75.31;;
72160;Laerm;60045;51.792;10.938;2022-07-23T07:23:01;59.20;36.93;71.26;;
72160;Laerm;60045;51.792;10.938;2022-07-23T07:25:28;57.17;38.14;71.64;;
72160;Laerm;60045;51.792;10.938;2022-07-23T07:27:54;63.95;39.18;75.36;;
72160;Laerm;60045;51.792;10.938;2022-07-23T07:30:20;59.81;41.47;73.48;;
72160;Laerm;60045;51.792;10.938;2022-07-23T07:32:46;57.59;41.43;70.77;;
72160;Laerm;60045;51.792;10.938;2022-07-23T07:35:13;63.53;41.01;79.66;;
72160;Laerm;60045;51.792;10.938;2022-07-23T07:37:39;60.80;39.59;72.91;;
72160;Laerm;60045;51.792;10.938;2022-07-23T07:40:07;65.48;39.27;80.03;;
72160;Laerm;60045;51.792;10.938;2022-07-23T07:42:34;55.52;34.59;70.63;;
72160;Laerm;60045;51.792;10.938;2022-07-23T07:45:00;58.80;35.90;69.16;;
72160;Laerm;60045;51.792;10.938;2022-07-23T07:47:26;63.45;32.89;79.57;;
72160;Laerm;60045;51.792;10.938;2022-07-23T07:49:53;56.60;31.38;73.26;;
72160;Laerm;60045;51.792;10.938;2022-07-23T07:52:19;60.67;37.97;75.61;;
72160;Laerm;60045;51.792;10.938;2022-07-23T07:54:45;59.54;36.11;71.25;;
72160;Laerm;60045;51.792;10.938;2022-07-23T07:57:13;54.62;29.56;69.66;;
72160;Laerm;60045;51.792;10.938;2022-07-23T07:59:39;60.60;31.59;73.29;;
72160;Laerm;60045;51.792;10.938;2022-07-23T08:02:05;60.57;32.33;77.15;;
72160;Laerm;60045;51.792;10.938;2022-07-23T08:04:32;63.89;35.12;78.88;;
72160;Laerm;60045;51.792;10.938;2022-07-23T08:06:58;61.52;34.63;75.68;;
72160;Laerm;60045;51.792;10.938;2022-07-23T08:09:24;59.76;36.99;73.21;;
72160;Laerm;60045;51.792;10.938;2022-07-23T08:11:50;61.60;35.13;78.33;;
72160;Laerm;60045;51.792;10.938;2022-07-23T08:14:18;58.38;31.98;71.32;;
72160;Laerm;60045;51.792;10.938;2022-07-23T08:16:44;65.28;38.72;78.96;;
72160;Laerm;60045;51.792;10.938;2022-07-23T08:19:11;63.79;40.99;79.09;;
72160;Laerm;60045;51.792;10.938;2022-07-23T08:21:37;60.57;32.62;75.88;;
72160;Laerm;60045;51.792;10.938;2022-07-23T08:24:03;63.02;39.12;75.58;;
72160;Laerm;60045;51.792;10.938;2022-07-23T08:26:29;60.79;35.75;72.74;;
72160;Laerm;60045;51.792;10.938;2022-07-23T08:28:56;60.69;36.82;71.17;;
72160;Laerm;60045;51.792;10.938;2022-07-23T08:31:24;59.06;34.25;73.72;;
72160;Laerm;60045;51.792;10.938;2022-07-23T08:33:50;56.57;33.92;68.61;;
72160;Laerm;60045;51.792;10.938;2022-07-23T08:36:17;59.13;32.16;72.32;;
72160;Laerm;60045;51.792;10.938;2022-07-23T08:38:43;61.59;35.60;74.46;;
72160;Laerm;60045;51.792;10.938;2022-07-23T08:41:09;55.64;33.97;69.70;;
72160;Laerm;60045;51.792;10.938;2022-07-23T08:43:36;60.55;35.54;73.93;;
72160;Laerm;60045;51.792;10.938;2022-07-23T08:46:03;57.20;35.47;70.75;;
72160;Laerm;60045;51.792;10.938;2022-07-23T08:48:31;60.57;37.07;72.59;;
72160;Laerm;60045;51.792;10.938;2022-07-23T08:50:58;63.61;39.19;79.57;;
72160;Laerm;60045;51.792;10.938;2022-07-23T08:53:25;58.67;35.19;72.37;;
72160;Laerm;60045;51.792;10.938;2022-07-23T08:55:52;61.97;38.54;73.71;;
72160;Laerm;60045;51.792;10.938;2022-07-23T08:58:19;58.76;34.07;72.08;;
72160;Laerm;60045;51.792;10.938;2022-07-23T09:00:46;60.81;37.13;72.86;;
72160;Laerm;60045;51.792;10.938;2022-07-23T09:03:14;59.09;37.32;71.96;;
72160;Laerm;60045;51.792;10.938;2022-07-23T09:05:42;64.63;40.33;82.61;;
72160;Laerm;60045;51.792;10.938;2022-07-23T09:08:10;61.25;38.41;78.02;;
72160;Laerm;60045;51.792;10.938;2022-07-23T09:10:42;59.00;40.06;71.54;;
72160;Laerm;60045;51.792;10.938;2022-07-23T09:13:14;59.45;36.20;75.89;;
72160;Laerm;60045;51.792;10.938;2022-07-23T09:15:48;59.39;40.41;73.28;;
72160;Laerm;60045;51.792;10.938;2022-07-23T09:18:15;57.01;38.03;69.03;;
72160;Laerm;60045;51.792;10.938;2022-07-23T09:20:43;61.09;35.46;72.11;;
72160;Laerm;60045;51.792;10.938;2022-07-23T09:23:09;57.31;32.77;72.42;;
72160;Laerm;60045;51.792;10.938;2022-07-23T09:25:35;61.77;33.14;72.74;;
72160;Laerm;60045;51.792;10.938;2022-07-23T09:28:02;65.66;31.13;89.28;;
72160;Laerm;60045;51.792;10.938;2022-07-23T09:30:29;56.09;34.06;70.31;;
72160;Laerm;60045;51.792;10.938;2022-07-23T09:33:05;64.16;36.70;80.75;;
72160;Laerm;60045;51.792;10.938;2022-07-23T09:35:46;62.44;35.45;79.37;;
72160;Laerm;60045;51.792;10.938;2022-07-23T09:38:13;61.34;34.58;77.15;;
72160;Laerm;60045;51.792;10.938;2022-07-23T09:40:40;59.76;35.65;71.44;;
72160;Laerm;60045;51.792;10.938;2022-07-23T09:43:06;63.14;38.89;81.20;;
72160;Laerm;60045;51.792;10.938;2022-07-23T09:48:35;62.85;31.90;87.44;;
72160;Laerm;60045;51.792;10.938;2022-07-23T09:51:03;64.41;37.78;81.60;;
72160;Laerm;60045;51.792;10.938;2022-07-23T09:53:29;60.47;36.07;76.65;;
72160;Laerm;60045;51.792;10.938;2022-07-23T09:55:56;58.66;34.36;70.65;;
72160;Laerm;60045;51.792;10.938;2022-07-23T09:58:24;56.68;31.41;69.12;;
72160;Laerm;60045;51.792;10.938;2022-07-23T10:00:52;56.34;31.75;69.22;;
72160;Laerm;60045;51.792;10.938;2022-07-23T10:03:18;59.98;33.84;73.28;;
72160;Laerm;60045;51.792;10.938;2022-07-23T10:05:45;55.40;31.44;72.11;;
72160;Laerm;60045;51.792;10.938;2022-07-23T10:08:13;55.06;33.13;70.71;;
72160;Laerm;60045;51.792;10.938;2022-07-23T10:10:44;60.23;34.01;73.41;;
72160;Laerm;60045;51.792;10.938;2022-07-23T10:13:11;60.15;34.96;73.08;;
72160;Laerm;60045;51.792;10.938;2022-07-23T10:16:00;60.29;32.94;76.19;;
72160;Laerm;60045;51.792;10.938;2022-07-23T10:18:27;61.12;35.38;74.11;;
72160;Laerm;60045;51.792;10.938;2022-07-23T10:20:53;58.39;32.70;73.38;;
72160;Laerm;60045;51.792;10.938;2022-07-23T10:23:24;61.39;37.52;76.87;;
72160;Laerm;60045;51.792;10.938;2022-07-23T10:25:55;60.42;35.57;74.10;;
72160;Laerm;60045;51.792;10.938;2022-07-23T10:28:29;64.80;35.88;81.19;;
72160;Laerm;60045;51.792;10.938;2022-07-23T10:31:00;59.68;32.30;79.40;;
72160;Laerm;60045;51.792;10.938;2022-07-23T10:33:30;55.38;33.26;70.90;;
72160;Laerm;60045;51.792;10.938;2022-07-23T10:36:00;60.35;33.94;71.86;;
72160;Laerm;60045;51.792;10.938;2022-07-23T10:38:30;58.72;36.67;72.42;;
72160;Laerm;60045;51.792;10.938;2022-07-23T10:40:57;59.37;35.46;73.44;;
72160;Laerm;60045;51.792;10.938;2022-07-23T10:43:24;64.07;34.90;80.11;;
72160;Laerm;60045;51.792;10.938;2022-07-23T10:45:51;70.83;35.21;88.84;;
72160;Laerm;60045;51.792;10.938;2022-07-23T10:48:18;61.28;32.39;75.57;;
72160;Laerm;60045;51.792;10.938;2022-07-23T10:53:26;61.22;39.88;73.16;;
72160;Laerm;60045;51.792;10.938;2022-07-23T10:55:54;58.60;36.45;75.72;;
72160;Laerm;60045;51.792;10.938;2022-07-23T10:58:21;61.75;37.59;75.54;;
72160;Laerm;60045;51.792;10.938;2022-07-23T11:00:48;59.48;36.02;71.87;;
72160;Laerm;60045;51.792;10.938;2022-07-23T11:03:27;61.48;38.41;75.10;;
72160;Laerm;60045;51.792;10.938;2022-07-23T11:05:53;57.95;37.07;72.49;;
72160;Laerm;60045;51.792;10.938;2022-07-23T11:08:20;62.40;40.35;76.52;;
72160;Laerm;60045;51.792;10.938;2022-07-23T11:10:47;58.88;37.69;73.31;;
72160;Laerm;60045;51.792;10.938;2022-07-23T11:16:12;61.40;37.33;73.25;;
72160;Laerm;60045;51.792;10.938;2022-07-23T11:21:51;70.06;37.96;86.96;;
72160;Laerm;60045;51.792;10.938;2022-07-23T11:24:19;69.21;38.97;88.61;;
72160;Laerm;60045;51.792;10.938;2022-07-23T11:26:49;69.08;40.02;88.24;;
72160;Laerm;60045;51.792;10.938;2022-07-23T11:32:04;61.84;34.99;76.14;;
72160;Laerm;60045;51.792;10.938;2022-07-23T11:34:30;61.72;38.21;74.72;;
72160;Laerm;60045;51.792;10.938;2022-07-23T11:36:57;55.93;36.93;70.62;;
72160;Laerm;60045;51.792;10.938;2022-07-23T11:39:24;65.96;38.36;84.45;;
72160;Laerm;60045;51.792;10.938;2022-07-23T11:41:51;59.73;37.68;70.35;;
72160;Laerm;60045;51.792;10.938;2022-07-23T11:44:24;63.07;33.41;79.66;;
72160;Laerm;60045;51.792;10.938;2022-07-23T11:46:54;57.59;32.73;71.52;;
72160;Laerm;60045;51.792;10.938;2022-07-23T11:49:21;61.57;34.66;73.08;;
72160;Laerm;60045;51.792;10.938;2022-07-23T11:51:53;58.39;32.22;71.97;;
72160;Laerm;60045;51.792;10.938;2022-07-23T11:54:27;59.58;30.45;72.61;;
72160;Laerm;60045;51.792;10.938;2022-07-23T11:56:57;62.16;30.76;75.56;;
72160;Laerm;60045;51.792;10.938;2022-07-23T11:59:23;61.59;37.58;73.87;;
72160;Laerm;60045;51.792;10.938;2022-07-23T12:01:57;64.88;34.87;83.29;;
72160;Laerm;60045;51.792;10.938;2022-07-23T12:04:29;63.44;42.04;74.56;;
72160;Laerm;60045;51.792;10.938;2022-07-23T12:07:02;60.05;34.21;73.41;;
72160;Laerm;60045;51.792;10.938;2022-07-23T12:09:28;61.19;31.79;71.57;;
72160;Laerm;60045;51.792;10.938;2022-07-23T12:11:57;58.57;32.91;71.33;;
72160;Laerm;60045;51.792;10.938;2022-07-23T12:14:24;59.26;33.79;70.40;;
72160;Laerm;60045;51.792;10.938;2022-07-23T12:19:32;60.07;34.55;74.53;;
72160;Laerm;60045;51.792;10.938;2022-07-23T12:21:59;59.02;31.59;71.92;;
72160;Laerm;60045;51.792;10.938;2022-07-23T12:24:25;58.66;34.28;70.90;;
72160;Laerm;60045;51.792;10.938;2022-07-23T12:27:07;64.60;35.23;80.68;;
72160;Laerm;60045;51.792;10.938;2022-07-23T12:29:34;60.69;34.67;73.50;;
72160;Laerm;60045;51.792;10.938;2022-07-23T12:32:00;57.65;34.21;72.89;;
72160;Laerm;60045;51.792;10.938;2022-07-23T12:34:26;61.02;36.11;72.37;;
72160;Laerm;60045;51.792;10.938;2022-07-23T12:36:54;59.71;35.28;71.29;;
72160;Laerm;60045;51.792;10.938;2022-07-23T12:39:29;57.60;30.99;71.58;;
72160;Laerm;60045;51.792;10.938;2022-07-23T12:41:55;58.67;38.48;70.17;;
72160;Laerm;60045;51.792;10.938;2022-07-23T12:44:21;60.30;39.09;73.71;;
72160;Laerm;60045;51.792;10.938;2022-07-23T12:46:49;59.63;33.39;72.30;;
72160;Laerm;60045;51.792;10.938;2022-07-23T12:49:24;61.19;34.78;73.70;;
72160;Laerm;60045;51.792;10.938;2022-07-23T12:51:51;61.31;37.12;77.35;;
72160;Laerm;60045;51.792;10.938;2022-07-23T12:54:19;58.33;34.82;70.53;;
72160;Laerm;60045;51.792;10.938;2022-07-23T12:56:52;60.35;34.01;75.94;;
72160;Laerm;60045;51.792;10.938;2022-07-23T12:59:19;59.79;37.71;75.39;;
72160;Laerm;60045;51.792;10.938;2022-07-23T13:01:53;58.43;36.72;72.69;;
72160;Laerm;60045;51.792;10.938;2022-07-23T13:04:20;62.64;36.14;78.81;;
72160;Laerm;60045;51.792;10.938;2022-07-23T13:06:48;58.19;35.78;72.59;;
72160;Laerm;60045;51.792;10.938;2022-07-23T13:09:14;60.07;33.19;74.64;;
72160;Laerm;60045;51.792;10.938;2022-07-23T13:11:43;64.21;34.55;80.59;;
72160;Laerm;60045;51.792;10.938;2022-07-23T13:14:10;61.75;33.89;78.51;;
72160;Laerm;60045;51.792;10.938;2022-07-23T13:16:37;57.92;35.69;70.18;;
72160;Laerm;60045;51.792;10.938;2022-07-23T13:19:04;59.87;35.01;75.64;;
72160;Laerm;60045;51.792;10.938;2022-07-23T13:21:31;62.49;36.91;77.99;;
72160;Laerm;60045;51.792;10.938;2022-07-23T13:23:57;58.06;34.98;71.03;;
72160;Laerm;60045;51.792;10.938;2022-07-23T13:26:23;60.30;34.92;72.78;;
72160;Laerm;60045;51.792;10.938;2022-07-23T13:28:51;62.97;37.01;73.84;;
72160;Laerm;60045;51.792;10.938;2022-07-23T13:31:17;60.70;33.76;80.00;;
72160;Laerm;60045;51.792;10.938;2022-07-23T13:33:44;59.01;37.19;74.24;;
72160;Laerm;60045;51.792;10.938;2022-07-23T13:36:10;59.36;37.48;71.48;;
72160;Laerm;60045;51.792;10.938;2022-07-23T13:38:36;57.20;40.01;71.73;;
72160;Laerm;60045;51.792;10.938;2022-07-23T13:41:03;59.53;36.99;74.86;;
72160;Laerm;60045;51.792;10.938;2022-07-23T13:43:30;71.16;37.08;90.63;;
72160;Laerm;60045;51.792;10.938;2022-07-23T13:45:57;59.04;35.25;69.88;;
72160;Laerm;60045;51.792;10.938;2022-07-23T13:48:25;56.11;34.01;71.46;;